Time;durP1;ratioP1;P1;durP2;ratioP2;P2;SDS_P1;SDS_P2;PMS_P1;PMS_P2;Temp;Humidity;BMP_temperature;BMP_pressure;BME280_temperature;BME280_humidity;BME280_pressure;Samples;Min_cycle;Max_cycle;Signal;HPM_P1;HPM_P2
2023/08/31 00:01:04;;;;;;;0.70;0.70;;;18.20;99.90;;;;;;5024831;28;20204;-76
2023/08/31 00:03:32;;;;;;;0.82;0.82;;;18.10;99.90;;;;;;5023479;28;20217;-76
2023/08/31 00:05:58;;;;;;;0.70;0.70;;;18.10;99.90;;;;;;5021379;28;20212;-76
2023/08/31 00:08:26;;;;;;;0.63;0.63;;;18.10;99.90;;;;;;5017652;28;20251;-77
2023/08/31 00:11:00;;;;;;;0.70;0.70;;;18.10;99.90;;;;;;5022800;28;20281;-76
2023/08/31 00:13:27;;;;;;;0.98;0.73;;;18.00;99.90;;;;;;5026921;28;20206;-76
2023/08/31 00:15:57;;;;;;;0.60;0.60;;;18.00;99.90;;;;;;5026954;28;20364;-76
2023/08/31 00:18:25;;;;;;;0.70;0.70;;;17.90;99.90;;;;;;5024282;28;20228;-76
2023/08/31 00:20:53;;;;;;;0.80;0.80;;;17.90;99.90;;;;;;5023658;28;20230;-76
2023/08/31 00:23:20;;;;;;;0.90;0.75;;;17.80;99.90;;;;;;5024719;28;20226;-76
2023/08/31 00:25:47;;;;;;;0.68;0.68;;;17.80;99.90;;;;;;5023155;28;20621;-76
2023/08/31 00:28:15;;;;;;;0.70;0.70;;;17.80;99.90;;;;;;5026542;28;20280;-76
2023/08/31 00:30:44;;;;;;;1.23;1.00;;;17.80;99.90;;;;;;5024473;28;20203;-76
2023/08/31 00:33:12;;;;;;;0.60;0.60;;;17.80;99.90;;;;;;5023013;28;20697;-76
2023/08/31 00:35:42;;;;;;;0.70;0.70;;;17.70;99.90;;;;;;5028484;28;20231;-76
2023/08/31 00:38:09;;;;;;;1.30;0.80;;;17.70;99.90;;;;;;5030956;28;20307;-77
2023/08/31 00:40:41;;;;;;;0.73;0.73;;;17.70;99.90;;;;;;5027515;28;20204;-77
2023/08/31 00:43:08;;;;;;;1.48;0.90;;;17.70;99.90;;;;;;5030585;28;20249;-77
2023/08/31 00:45:35;;;;;;;0.73;0.73;;;17.70;99.90;;;;;;5024804;28;20204;-76
2023/08/31 00:48:03;;;;;;;0.63;0.63;;;17.70;99.90;;;;;;5028710;28;20669;-76
2023/08/31 00:50:31;;;;;;;0.60;0.60;;;17.60;99.90;;;;;;5025024;28;20206;-76
2023/08/31 00:52:58;;;;;;;0.80;0.80;;;17.60;99.90;;;;;;5025120;28;20195;-77
2023/08/31 00:55:26;;;;;;;2.42;0.80;;;17.60;99.90;;;;;;5023956;28;20232;-77
2023/08/31 00:57:55;;;;;;;3.15;1.15;;;17.60;99.90;;;;;;5030503;28;20219;-75
2023/08/31 01:00:24;;;;;;;0.77;0.73;;;17.60;99.90;;;;;;5028523;28;20203;-76
2023/08/31 01:03:03;;;;;;;0.77;0.77;;;17.60;99.90;;;;;;5034729;28;20237;-77
2023/08/31 01:05:42;;;;;;;0.60;0.60;;;17.60;99.90;;;;;;5028131;28;20211;-76
2023/08/31 01:08:22;;;;;;;1.58;0.85;;;17.60;99.90;;;;;;5029582;28;20273;-77
2023/08/31 01:11:00;;;;;;;0.73;0.73;;;17.60;99.90;;;;;;5029527;28;20669;-76
2023/08/31 01:13:28;;;;;;;0.77;0.73;;;17.60;99.90;;;;;;5028576;28;20231;-76
2023/08/31 01:16:00;;;;;;;1.20;0.80;;;17.50;99.90;;;;;;5033192;28;20203;-76
2023/08/31 01:18:29;;;;;;;0.88;0.88;;;17.50;99.90;;;;;;5031799;28;20238;-77
2023/08/31 01:21:06;;;;;;;0.98;0.65;;;17.50;99.90;;;;;;5031086;28;20600;-78
2023/08/31 01:23:44;;;;;;;0.80;0.80;;;17.50;99.90;;;;;;5030823;28;20300;-79
2023/08/31 01:26:11;;;;;;;1.15;1.05;;;17.50;99.90;;;;;;5031073;28;20194;-77
2023/08/31 01:28:40;;;;;;;0.60;0.60;;;17.50;99.90;;;;;;5029054;28;20625;-76
2023/08/31 01:31:07;;;;;;;0.80;0.80;;;17.50;99.90;;;;;;5035025;28;20208;-77
2023/08/31 01:33:34;;;;;;;0.85;0.85;;;17.50;99.90;;;;;;5034180;28;20192;-76
2023/08/31 01:36:05;;;;;;;0.60;0.60;;;17.50;99.90;;;;;;5030164;28;20291;-79
2023/08/31 01:38:35;;;;;;;0.70;0.70;;;17.50;99.90;;;;;;5029785;28;20215;-76
2023/08/31 01:41:08;;;;;;;1.02;0.80;;;17.60;99.90;;;;;;5028257;28;20200;-76
2023/08/31 01:43:37;;;;;;;0.70;0.70;;;17.50;99.90;;;;;;5028577;28;20298;-77
2023/08/31 01:46:04;;;;;;;1.35;0.93;;;17.60;99.90;;;;;;5031878;28;20274;-81
2023/08/31 01:48:32;;;;;;;0.80;0.80;;;17.50;99.90;;;;;;5029095;28;20243;-76
2023/08/31 01:51:01;;;;;;;0.82;0.82;;;17.50;99.90;;;;;;5031825;28;20196;-76
2023/08/31 01:53:28;;;;;;;0.77;0.77;;;17.50;99.90;;;;;;5034033;28;20287;-77
2023/08/31 01:55:55;;;;;;;0.80;0.80;;;17.50;99.90;;;;;;5026395;28;20211;-76
2023/08/31 01:58:23;;;;;;;0.90;0.80;;;17.40;99.90;;;;;;5028296;28;20709;-76
2023/08/31 02:00:50;;;;;;;0.60;0.60;;;17.40;99.90;;;;;;5030246;28;20621;-76
2023/08/31 02:03:17;;;;;;;1.73;0.82;;;17.40;99.90;;;;;;5030654;28;20211;-76
2023/08/31 02:05:44;;;;;;;0.80;0.73;;;17.40;99.90;;;;;;5028590;28;20200;-76
2023/08/31 02:08:11;;;;;;;0.70;0.70;;;17.40;99.90;;;;;;5031672;28;20270;-76
2023/08/31 02:10:38;;;;;;;0.60;0.60;;;17.40;99.90;;;;;;5026596;28;20229;-77
2023/08/31 02:13:05;;;;;;;1.40;0.80;;;17.40;99.90;;;;;;5034906;28;20199;-76
2023/08/31 02:15:33;;;;;;;0.65;0.65;;;17.30;99.90;;;;;;5026853;28;20191;-76
2023/08/31 02:18:00;;;;;;;0.80;0.80;;;17.30;99.90;;;;;;5029441;28;20216;-76
2023/08/31 02:20:27;;;;;;;1.02;0.90;;;17.30;99.90;;;;;;5030530;28;20254;-77
2023/08/31 02:22:55;;;;;;;0.70;0.70;;;17.20;99.90;;;;;;5029006;28;20243;-77
2023/08/31 02:25:22;;;;;;;0.82;0.70;;;17.20;99.90;;;;;;5029759;28;20722;-76
2023/08/31 02:27:49;;;;;;;0.90;0.90;;;17.20;99.90;;;;;;5028367;28;20632;-76
2023/08/31 02:30:16;;;;;;;0.82;0.82;;;17.30;99.90;;;;;;5030878;28;20261;-76
2023/08/31 02:32:44;;;;;;;0.70;0.70;;;17.30;99.90;;;;;;5030445;28;20195;-76
2023/08/31 02:35:12;;;;;;;0.65;0.65;;;17.30;99.90;;;;;;5029309;28;20679;-76
2023/08/31 02:37:39;;;;;;;1.00;0.90;;;17.30;99.90;;;;;;5028930;28;20205;-78
2023/08/31 02:40:08;;;;;;;0.70;0.70;;;17.30;99.90;;;;;;5027765;28;20392;-77
2023/08/31 02:42:35;;;;;;;0.80;0.80;;;17.30;99.90;;;;;;5033782;28;20222;-77
2023/08/31 02:45:02;;;;;;;1.10;0.80;;;17.20;99.90;;;;;;5033234;28;20584;-76
2023/08/31 02:47:29;;;;;;;0.85;0.85;;;17.20;99.90;;;;;;5032564;28;20202;-76
2023/08/31 02:49:58;;;;;;;0.75;0.73;;;17.30;99.90;;;;;;5032928;28;20216;-76
2023/08/31 02:52:25;;;;;;;0.80;0.73;;;17.20;99.90;;;;;;5034890;28;20225;-77
2023/08/31 02:54:52;;;;;;;0.70;0.70;;;17.20;99.90;;;;;;5038988;28;20221;-77
2023/08/31 02:57:19;;;;;;;0.90;0.90;;;17.20;99.90;;;;;;5035480;28;20200;-79
2023/08/31 02:59:50;;;;;;;1.15;1.00;;;17.10;99.90;;;;;;5012627;28;20216;-76
2023/08/31 03:02:17;;;;;;;0.93;0.80;;;17.10;99.90;;;;;;5018675;28;20764;-77
2023/08/31 03:04:43;;;;;;;0.80;0.80;;;17.00;99.90;;;;;;5013920;28;20192;-75
2023/08/31 03:07:15;;;;;;;0.70;0.70;;;17.00;99.90;;;;;;5024720;28;20195;-79
2023/08/31 03:09:41;;;;;;;0.90;0.90;;;17.00;99.90;;;;;;5027631;28;20608;-80
2023/08/31 03:12:08;;;;;;;1.02;0.82;;;17.00;99.90;;;;;;5024696;28;20196;-76
2023/08/31 03:14:35;;;;;;;0.80;0.68;;;16.90;99.90;;;;;;5023623;28;20826;-77
2023/08/31 03:17:03;;;;;;;0.88;0.88;;;16.90;99.90;;;;;;5019346;28;20224;-76
2023/08/31 03:19:30;;;;;;;0.70;0.70;;;16.90;99.90;;;;;;5027098;28;20212;-78
2023/08/31 03:21:57;;;;;;;0.80;0.80;;;16.80;99.90;;;;;;5029715;28;20203;-79
2023/08/31 03:24:25;;;;;;;1.25;0.90;;;16.80;99.90;;;;;;5029760;28;20214;-76
2023/08/31 03:26:52;;;;;;;0.98;0.90;;;16.80;99.90;;;;;;5016462;28;20678;-77
2023/08/31 03:29:19;;;;;;;0.88;0.88;;;16.80;99.90;;;;;;5015428;28;20255;-76
2023/08/31 03:31:46;;;;;;;0.80;0.80;;;16.70;99.90;;;;;;5019809;28;20197;-77
2023/08/31 03:34:13;;;;;;;0.70;0.70;;;16.70;99.90;;;;;;5025731;28;20199;-77
2023/08/31 03:36:40;;;;;;;1.48;0.70;;;16.70;99.90;;;;;;5022790;28;20239;-80
2023/08/31 03:39:07;;;;;;;0.75;0.75;;;16.70;99.90;;;;;;5023697;28;20314;-78
2023/08/31 03:41:35;;;;;;;0.75;0.75;;;16.70;99.90;;;;;;5024808;28;20203;-81
2023/08/31 03:44:02;;;;;;;1.13;1.10;;;16.60;99.90;;;;;;5026156;28;20640;-76
2023/08/31 03:46:29;;;;;;;0.77;0.77;;;16.80;99.90;;;;;;5020871;28;20286;-77
2023/08/31 03:48:56;;;;;;;0.98;0.90;;;16.80;99.90;;;;;;5014056;28;20764;-76
2023/08/31 03:51:23;;;;;;;1.17;1.08;;;17.00;99.90;;;;;;5020868;28;20222;-79
2023/08/31 03:53:51;;;;;;;0.82;0.70;;;17.00;99.90;;;;;;5018388;28;20200;-77
2023/08/31 03:56:18;;;;;;;1.00;1.00;;;17.10;99.90;;;;;;5028818;28;20196;-81
2023/08/31 03:58:46;;;;;;;0.85;0.85;;;17.10;99.90;;;;;;5027525;28;20250;-78
2023/08/31 04:01:14;;;;;;;0.70;0.70;;;17.00;99.90;;;;;;5020509;28;20205;-76
2023/08/31 04:03:43;;;;;;;0.80;0.80;;;16.90;99.90;;;;;;5032225;28;20210;-76
2023/08/31 04:06:10;;;;;;;0.75;0.75;;;16.80;99.90;;;;;;5020142;28;20195;-77
2023/08/31 04:08:37;;;;;;;0.80;0.73;;;16.70;99.90;;;;;;5030621;28;20223;-77
2023/08/31 04:11:04;;;;;;;0.70;0.70;;;16.60;99.90;;;;;;5031862;28;20689;-79
2023/08/31 04:13:31;;;;;;;0.75;0.75;;;16.60;99.90;;;;;;5030397;28;20188;-79
2023/08/31 04:15:59;;;;;;;0.70;0.70;;;16.60;99.90;;;;;;5022478;28;20751;-79
2023/08/31 04:18:26;;;;;;;1.17;0.80;;;16.50;99.90;;;;;;5029200;28;20787;-76
2023/08/31 04:20:54;;;;;;;1.38;0.80;;;16.40;99.90;;;;;;5033042;28;20265;-78
2023/08/31 04:23:21;;;;;;;0.90;0.90;;;16.40;99.90;;;;;;5030790;28;20215;-78
2023/08/31 04:25:51;;;;;;;0.60;0.60;;;16.40;99.90;;;;;;5032076;28;20273;-81
2023/08/31 04:28:18;;;;;;;0.75;0.75;;;16.30;99.90;;;;;;5031427;28;20310;-76
2023/08/31 04:30:45;;;;;;;0.70;0.70;;;16.30;99.90;;;;;;5024381;28;20210;-79
2023/08/31 04:33:13;;;;;;;0.80;0.80;;;16.30;99.90;;;;;;5023875;28;20199;-76
2023/08/31 04:35:40;;;;;;;0.80;0.80;;;16.20;99.90;;;;;;5023711;28;20256;-75
2023/08/31 04:38:07;;;;;;;1.08;1.00;;;16.20;99.90;;;;;;5030707;28;20246;-77
2023/08/31 04:40:34;;;;;;;0.93;0.93;;;16.20;99.90;;;;;;5030996;28;20851;-78
2023/08/31 04:43:01;;;;;;;0.93;0.93;;;16.20;99.90;;;;;;5031846;28;20269;-76
2023/08/31 04:45:28;;;;;;;0.80;0.80;;;16.20;99.90;;;;;;5025072;28;20214;-77
2023/08/31 04:47:55;;;;;;;0.80;0.80;;;16.20;99.90;;;;;;5030472;28;20224;-78
2023/08/31 04:50:23;;;;;;;0.82;0.82;;;16.10;99.90;;;;;;5030996;28;20208;-76
2023/08/31 04:52:50;;;;;;;0.70;0.70;;;16.20;99.90;;;;;;5028434;28;20231;-80
2023/08/31 04:55:17;;;;;;;0.85;0.85;;;16.20;99.90;;;;;;5025918;28;20946;-76
2023/08/31 04:57:44;;;;;;;0.50;0.50;;;16.20;99.90;;;;;;5033778;28;20239;-77
2023/08/31 05:00:12;;;;;;;0.80;0.80;;;16.20;99.90;;;;;;5032314;28;20203;-77
2023/08/31 05:02:40;;;;;;;0.70;0.70;;;16.30;99.90;;;;;;5027289;28;20641;-77
2023/08/31 05:05:08;;;;;;;1.45;0.85;;;16.30;99.90;;;;;;5032139;28;20195;-78
2023/08/31 05:07:36;;;;;;;0.70;0.70;;;16.30;99.90;;;;;;5023383;28;20291;-76
2023/08/31 05:10:05;;;;;;;1.10;0.93;;;16.40;99.90;;;;;;5028336;28;20222;-77
2023/08/31 05:12:32;;;;;;;0.90;0.90;;;16.40;99.90;;;;;;5031567;28;20968;-78
2023/08/31 05:14:59;;;;;;;0.65;0.65;;;16.50;99.90;;;;;;5032421;28;20234;-77
2023/08/31 05:17:26;;;;;;;0.93;0.80;;;16.80;99.90;;;;;;5026663;28;20564;-75
2023/08/31 05:19:53;;;;;;;0.90;0.90;;;17.00;99.90;;;;;;5033702;28;20238;-77
2023/08/31 05:22:19;;;;;;;1.08;0.90;;;17.30;99.90;;;;;;5029432;28;20208;-79
2023/08/31 05:24:48;;;;;;;1.10;1.02;;;17.50;99.90;;;;;;5030282;28;20226;-79
2023/08/31 05:27:14;;;;;;;0.82;0.82;;;17.80;99.90;;;;;;5027379;28;20196;-80
2023/08/31 05:29:41;;;;;;;0.80;0.80;;;17.90;99.90;;;;;;5025645;28;20334;-76
2023/08/31 05:32:08;;;;;;;1.85;0.80;;;18.10;99.90;;;;;;5035080;28;20241;-76
2023/08/31 05:34:37;;;;;;;0.90;0.90;;;18.20;99.90;;;;;;5030279;28;20203;-77
2023/08/31 05:37:05;;;;;;;0.82;0.82;;;18.40;99.90;;;;;;5031995;28;20206;-75
2023/08/31 05:39:32;;;;;;;1.02;1.02;;;18.50;99.90;;;;;;5032180;28;20255;-75
2023/08/31 05:42:01;;;;;;;1.55;1.10;;;18.50;99.90;;;;;;5035947;28;20235;-78
2023/08/31 05:44:28;;;;;;;1.15;1.00;;;18.60;99.90;;;;;;5028395;28;20219;-75
2023/08/31 05:46:54;;;;;;;0.95;0.95;;;18.50;99.90;;;;;;5033613;28;20822;-75
2023/08/31 05:49:21;;;;;;;1.10;1.00;;;18.50;99.90;;;;;;5029860;28;20223;-75
2023/08/31 05:51:48;;;;;;;1.10;1.00;;;18.50;99.90;;;;;;5029807;28;20285;-75
2023/08/31 05:54:15;;;;;;;0.90;0.90;;;18.50;99.90;;;;;;5034816;28;20230;-75
2023/08/31 05:56:42;;;;;;;2.42;0.90;;;18.60;99.90;;;;;;5026317;28;20231;-76
2023/08/31 05:59:11;;;;;;;0.82;0.80;;;18.50;99.90;;;;;;5028430;28;20709;-78
2023/08/31 06:01:38;;;;;;;1.45;0.95;;;18.40;99.90;;;;;;5026717;28;20199;-76
2023/08/31 06:04:05;;;;;;;0.90;0.90;;;18.30;99.90;;;;;;5024674;28;20215;-77
2023/08/31 06:06:33;;;;;;;0.73;0.73;;;18.30;99.90;;;;;;5027590;28;20208;-75
2023/08/31 06:09:00;;;;;;;0.90;0.90;;;18.30;99.90;;;;;;5026796;28;20228;-77
2023/08/31 06:11:27;;;;;;;0.88;0.77;;;18.40;99.90;;;;;;5028079;28;20206;-76
2023/08/31 06:13:54;;;;;;;1.10;1.00;;;18.50;99.90;;;;;;5028767;28;20195;-77
2023/08/31 06:16:22;;;;;;;0.85;0.85;;;18.70;99.90;;;;;;5026791;28;20277;-76
2023/08/31 06:18:49;;;;;;;1.15;1.00;;;18.90;99.90;;;;;;5026980;28;20231;-76
2023/08/31 06:21:16;;;;;;;0.80;0.80;;;19.10;99.90;;;;;;5027922;28;20653;-75
2023/08/31 06:23:43;;;;;;;0.75;0.75;;;19.30;99.90;;;;;;5026131;28;20614;-75
2023/08/31 06:26:11;;;;;;;0.90;0.90;;;19.30;99.90;;;;;;5028438;28;20291;-76
2023/08/31 06:28:38;;;;;;;1.15;0.90;;;19.40;99.90;;;;;;5027600;28;20763;-76
2023/08/31 06:31:05;;;;;;;1.35;0.90;;;19.50;99.90;;;;;;5029629;28;20269;-76
2023/08/31 06:33:33;;;;;;;2.03;0.95;;;19.50;99.90;;;;;;5030028;28;20286;-75
2023/08/31 06:36:00;;;;;;;0.77;0.77;;;19.30;99.90;;;;;;5027069;28;20219;-77
2023/08/31 06:38:27;;;;;;;0.90;0.90;;;19.10;99.90;;;;;;5028853;28;20212;-77
2023/08/31 06:40:58;;;;;;;0.88;0.88;;;19.00;99.90;;;;;;5016552;28;20199;-77
2023/08/31 06:43:26;;;;;;;1.08;0.82;;;19.20;99.90;;;;;;5023141;28;20227;-76
2023/08/31 06:45:53;;;;;;;0.90;0.90;;;19.30;99.90;;;;;;5022442;28;20199;-75
2023/08/31 06:48:20;;;;;;;1.65;0.95;;;19.20;99.90;;;;;;5029437;28;20223;-75
2023/08/31 06:50:49;;;;;;;1.63;1.20;;;19.20;99.90;;;;;;5022666;28;20199;-76
2023/08/31 06:53:16;;;;;;;2.10;0.98;;;19.30;99.90;;;;;;5019388;28;20927;-75
2023/08/31 06:55:43;;;;;;;2.90;1.02;;;19.30;99.90;;;;;;5015918;28;20295;-78
2023/08/31 06:58:10;;;;;;;1.48;1.20;;;19.30;99.90;;;;;;5018386;28;20222;-75
2023/08/31 07:00:37;;;;;;;0.98;0.93;;;19.20;99.90;;;;;;5021163;28;20204;-77
2023/08/31 07:03:06;;;;;;;1.48;0.90;;;19.30;99.90;;;;;;5016603;28;20261;-74
2023/08/31 07:05:36;;;;;;;0.90;0.90;;;19.20;99.90;;;;;;5018766;28;20299;-76
2023/08/31 07:08:05;;;;;;;2.00;0.98;;;19.30;99.90;;;;;;5023047;28;20239;-76
2023/08/31 07:10:32;;;;;;;1.20;1.10;;;19.40;99.90;;;;;;5020734;28;20925;-75
2023/08/31 07:12:58;;;;;;;1.05;1.00;;;19.60;99.90;;;;;;5015560;28;20243;-75
2023/08/31 07:15:26;;;;;;;0.88;0.88;;;19.70;99.90;;;;;;5022944;28;20203;-76
2023/08/31 07:17:53;;;;;;;1.40;0.80;;;19.80;99.90;;;;;;5018497;28;20219;-76
2023/08/31 07:20:20;;;;;;;1.27;1.00;;;19.90;99.90;;;;;;5022316;28;20222;-74
2023/08/31 07:22:47;;;;;;;0.85;0.82;;;20.20;99.90;;;;;;5018896;28;20237;-76
2023/08/31 07:25:15;;;;;;;1.45;1.02;;;20.20;99.90;;;;;;5021928;28;20258;-74
2023/08/31 07:27:42;;;;;;;1.13;1.00;;;20.40;99.90;;;;;;5027865;28;20269;-75
2023/08/31 07:30:10;;;;;;;0.80;0.80;;;20.60;99.90;;;;;;5024271;28;20207;-76
2023/08/31 07:32:37;;;;;;;1.55;1.00;;;20.50;99.90;;;;;;5022368;28;20199;-78
2023/08/31 07:35:05;;;;;;;2.95;1.08;;;20.60;99.90;;;;;;5016107;28;20575;-76
2023/08/31 07:37:32;;;;;;;1.85;1.13;;;20.90;99.90;;;;;;5016542;28;20204;-76
2023/08/31 07:39:59;;;;;;;1.02;0.93;;;20.90;99.90;;;;;;5016405;28;20211;-76
2023/08/31 07:42:27;;;;;;;1.27;1.10;;;20.80;99.90;;;;;;5021007;28;22008;-75
2023/08/31 07:44:54;;;;;;;2.15;0.93;;;21.00;99.90;;;;;;5023536;28;20215;-77
2023/08/31 07:47:21;;;;;;;1.20;1.10;;;21.10;99.90;;;;;;5024487;28;20290;-76
2023/08/31 07:49:48;;;;;;;1.40;0.80;;;21.20;99.90;;;;;;5027862;28;20940;-76
2023/08/31 07:52:15;;;;;;;1.00;0.90;;;21.40;99.90;;;;;;5023784;28;20199;-76
2023/08/31 07:54:42;;;;;;;0.90;0.90;;;21.80;99.90;;;;;;5030652;28;20200;-75
2023/08/31 07:57:09;;;;;;;0.85;0.85;;;22.10;99.90;;;;;;5031919;28;20219;-76
2023/08/31 07:59:39;;;;;;;3.60;0.98;;;22.40;99.90;;;;;;5026650;28;20247;-76
2023/08/31 08:02:06;;;;;;;1.10;0.80;;;22.30;99.90;;;;;;5029972;28;20230;-76
2023/08/31 08:04:33;;;;;;;0.77;0.70;;;22.30;99.90;;;;;;5028560;28;20265;-76
2023/08/31 08:07:00;;;;;;;1.80;1.05;;;22.50;99.90;;;;;;5033371;28;20724;-77
2023/08/31 08:09:28;;;;;;;1.10;1.00;;;22.60;99.90;;;;;;5029052;28;20231;-78
2023/08/31 08:11:55;;;;;;;0.80;0.80;;;22.50;99.90;;;;;;5033096;28;20205;-75
2023/08/31 08:14:22;;;;;;;0.95;0.80;;;22.50;99.90;;;;;;5029355;28;20195;-75
2023/08/31 08:16:50;;;;;;;0.95;0.85;;;22.80;99.90;;;;;;5039839;28;20211;-76
2023/08/31 08:19:23;;;;;;;1.05;0.80;;;23.10;99.90;;;;;;5032351;28;20305;-76
2023/08/31 08:21:50;;;;;;;1.20;0.80;;;23.00;99.90;;;;;;5028595;28;20212;-76
2023/08/31 08:24:17;;;;;;;0.88;0.88;;;22.80;99.90;;;;;;5027816;28;20220;-76
2023/08/31 08:26:44;;;;;;;1.73;0.90;;;22.70;99.90;;;;;;5032098;28;20207;-76
2023/08/31 08:29:11;;;;;;;2.53;1.00;;;22.80;99.90;;;;;;5030740;28;20826;-77
2023/08/31 08:31:37;;;;;;;1.27;1.17;;;22.80;99.90;;;;;;5031174;28;20203;-76
2023/08/31 08:34:06;;;;;;;1.30;0.80;;;22.80;99.90;;;;;;5027607;28;20236;-76
2023/08/31 08:36:33;;;;;;;1.08;0.98;;;23.00;99.90;;;;;;5031584;28;20206;-79
2023/08/31 08:39:00;;;;;;;0.80;0.80;;;23.20;99.90;;;;;;5028030;28;20247;-76
2023/08/31 08:41:30;;;;;;;1.73;0.90;;;23.20;99.90;;;;;;5031795;28;20586;-76
2023/08/31 08:44:00;;;;;;;0.98;0.95;;;23.10;99.90;;;;;;5031902;28;20208;-76
2023/08/31 08:46:29;;;;;;;1.08;0.98;;;23.10;99.90;;;;;;5028747;28;20250;-78
2023/08/31 08:48:57;;;;;;;1.27;1.02;;;22.90;99.90;;;;;;5032738;28;20273;-75
2023/08/31 08:51:25;;;;;;;2.90;0.90;;;22.90;99.90;;;;;;5030254;28;20257;-76
2023/08/31 08:53:53;;;;;;;2.20;0.90;;;22.80;99.90;;;;;;5025587;28;20204;-76
2023/08/31 08:56:20;;;;;;;0.85;0.80;;;23.00;99.90;;;;;;5032993;28;20207;-76
2023/08/31 08:58:47;;;;;;;1.27;1.13;;;23.10;99.90;;;;;;5025502;28;20227;-79
2023/08/31 09:01:17;;;;;;;0.88;0.88;;;23.20;99.90;;;;;;5031100;28;20261;-76
2023/08/31 09:03:44;;;;;;;3.75;2.00;;;23.50;99.90;;;;;;5028860;28;20214;-77
2023/08/31 09:06:10;;;;;;;6.50;4.25;;;24.00;99.90;;;;;;5024175;28;20212;-75
2023/08/31 09:08:42;;;;;;;2.50;1.90;;;24.40;99.90;;;;;;5032565;28;20678;-76
2023/08/31 09:11:20;;;;;;;2.35;1.73;;;24.40;99.90;;;;;;5031181;28;20227;-76
2023/08/31 09:13:47;;;;;;;5.15;2.50;;;24.30;99.90;;;;;;5028841;28;20238;-77
2023/08/31 09:16:25;;;;;;;3.20;2.10;;;24.30;99.90;;;;;;5018265;28;20230;-76
2023/08/31 09:18:52;;;;;;;1.52;1.25;;;24.50;99.90;;;;;;5030433;28;20297;-76
2023/08/31 09:21:20;;;;;;;1.83;1.60;;;24.40;99.90;;;;;;5024886;28;20199;-77
2023/08/31 09:23:57;;;;;;;1.42;1.10;;;24.50;99.90;;;;;;5029358;28;20379;-76
2023/08/31 09:26:24;;;;;;;1.90;1.23;;;24.60;99.90;;;;;;5027614;28;20223;-77
2023/08/31 09:28:51;;;;;;;2.95;1.08;;;24.70;99.90;;;;;;5024727;28;20278;-77
2023/08/31 09:31:18;;;;;;;2.65;1.10;;;24.60;99.90;;;;;;5028795;28;20883;-77
2023/08/31 09:33:51;;;;;;;1.05;0.80;;;24.70;99.90;;;;;;5031413;28;20339;-76
2023/08/31 09:36:18;;;;;;;1.45;1.00;;;24.70;99.90;;;;;;5028293;28;20240;-77
2023/08/31 09:38:46;;;;;;;2.53;0.93;;;24.80;99.90;;;;;;5022719;28;20246;-77
2023/08/31 09:41:15;;;;;;;1.40;0.90;;;24.80;99.90;;;;;;5024502;28;20203;-76
2023/08/31 09:43:42;;;;;;;2.45;1.00;;;24.90;99.90;;;;;;5031301;28;20207;-77
2023/08/31 09:46:10;;;;;;;1.10;1.00;;;24.80;99.90;;;;;;5023132;28;20239;-75
2023/08/31 09:48:40;;;;;;;0.80;0.80;;;24.60;99.90;;;;;;5030048;28;20628;-78
2023/08/31 09:51:10;;;;;;;2.05;0.90;;;24.60;99.90;;;;;;5029934;28;20245;-76
2023/08/31 09:53:38;;;;;;;0.77;0.77;;;24.70;99.90;;;;;;5031400;28;20609;-76
2023/08/31 09:56:07;;;;;;;2.20;1.10;;;25.00;99.90;;;;;;5024509;28;20196;-76
2023/08/31 09:58:35;;;;;;;1.05;0.90;;;25.10;99.90;;;;;;5029545;28;20250;-76
2023/08/31 10:01:03;;;;;;;0.85;0.85;;;25.10;99.90;;;;;;5025293;28;20721;-77
2023/08/31 10:03:30;;;;;;;0.93;0.85;;;25.00;99.90;;;;;;5027061;28;20235;-77
2023/08/31 10:05:57;;;;;;;2.65;0.90;;;25.00;99.90;;;;;;5025409;28;20239;-75
2023/08/31 10:08:26;;;;;;;0.70;0.70;;;24.80;99.90;;;;;;5024696;28;20273;-76
2023/08/31 10:10:54;;;;;;;0.90;0.85;;;24.80;99.90;;;;;;5032382;28;20564;-77
2023/08/31 10:13:22;;;;;;;1.60;1.00;;;25.00;99.90;;;;;;5026659;28;20339;-76
2023/08/31 10:15:51;;;;;;;0.80;0.80;;;25.10;99.90;;;;;;5025871;28;20231;-74
2023/08/31 10:18:19;;;;;;;3.05;0.80;;;25.10;99.90;;;;;;5022940;28;20222;-76
2023/08/31 10:20:46;;;;;;;1.48;0.80;;;24.90;99.90;;;;;;5022754;28;20298;-77
2023/08/31 10:23:14;;;;;;;0.77;0.70;;;24.70;99.90;;;;;;5022625;28;20769;-75
2023/08/31 10:26:06;;;;;;;2.45;0.80;;;24.40;99.90;;;;;;5021052;28;20274;-77
2023/08/31 10:28:42;;;;;;;0.77;0.77;;;24.70;99.90;;;;;;5028825;28;20227;-77
2023/08/31 10:31:16;;;;;;;0.80;0.80;;;24.80;99.90;;;;;;5022582;28;20285;-77
2023/08/31 10:33:44;;;;;;;1.77;0.60;;;25.00;99.90;;;;;;5026314;28;20681;-76
2023/08/31 10:36:13;;;;;;;0.80;0.80;;;25.20;99.90;;;;;;5022290;28;20220;-76
2023/08/31 10:38:40;;;;;;;0.70;0.68;;;25.30;99.90;;;;;;5021109;28;20322;-78
2023/08/31 10:41:21;;;;;;;1.95;0.77;;;25.50;99.90;;;;;;5021755;28;20203;-76
2023/08/31 10:43:53;;;;;;;2.92;0.80;;;25.40;99.90;;;;;;5023342;28;20278;-76
2023/08/31 10:46:26;;;;;;;1.65;0.90;;;25.20;99.90;;;;;;5025205;28;20219;-76
2023/08/31 10:48:57;;;;;;;0.80;0.80;;;25.20;99.90;;;;;;5023054;28;20219;-76
2023/08/31 10:51:25;;;;;;;0.70;0.70;;;25.20;99.90;;;;;;5022123;28;20311;-76
2023/08/31 10:53:53;;;;;;;1.23;0.70;;;25.20;99.90;;;;;;5021621;28;20245;-76
2023/08/31 10:56:20;;;;;;;0.73;0.73;;;25.30;99.90;;;;;;5019033;28;20196;-76
2023/08/31 10:58:58;;;;;;;2.08;0.60;;;25.50;99.90;;;;;;5022329;28;20250;-77
2023/08/31 11:01:55;;;;;;;1.42;0.88;;;25.70;99.90;;;;;;5023616;28;20233;-78
2023/08/31 11:04:24;;;;;;;0.60;0.60;;;25.70;99.90;;;;;;5025071;28;20233;-77
2023/08/31 11:07:16;;;;;;;1.08;0.63;;;25.70;99.90;;;;;;5026388;28;20215;-76
2023/08/31 11:09:43;;;;;;;3.13;0.80;;;25.50;99.90;;;;;;5022543;28;20259;-77
2023/08/31 11:12:11;;;;;;;0.70;0.70;;;25.40;99.90;;;;;;5021919;28;20203;-77
2023/08/31 11:14:38;;;;;;;0.70;0.70;;;25.40;99.90;;;;;;5015725;28;20207;-76
2023/08/31 11:17:07;;;;;;;1.65;0.70;;;25.30;99.90;;;;;;5017206;28;20286;-76
2023/08/31 11:19:35;;;;;;;0.70;0.70;;;25.30;99.90;;;;;;5017727;28;20223;-77
2023/08/31 11:22:03;;;;;;;2.53;0.80;;;25.20;99.90;;;;;;5018401;28;20297;-76
2023/08/31 11:24:30;;;;;;;0.70;0.70;;;25.10;99.90;;;;;;5014655;28;20219;-76
2023/08/31 11:26:57;;;;;;;0.70;0.60;;;25.10;99.90;;;;;;5018357;28;20243;-76
2023/08/31 11:29:24;;;;;;;0.60;0.60;;;25.00;99.90;;;;;;5021517;28;20265;-76
2023/08/31 11:31:51;;;;;;;0.65;0.60;;;24.90;99.90;;;;;;5018807;28;20240;-78
2023/08/31 11:34:21;;;;;;;1.30;0.60;;;25.00;99.90;;;;;;5018071;28;20227;-78
2023/08/31 11:36:48;;;;;;;1.45;0.60;;;25.20;99.90;;;;;;5020957;28;20191;-76
2023/08/31 11:39:15;;;;;;;0.82;0.60;;;25.20;99.90;;;;;;5021114;28;20281;-77
2023/08/31 11:41:43;;;;;;;0.70;0.70;;;25.40;99.90;;;;;;5023078;28;20564;-76
2023/08/31 11:44:11;;;;;;;0.52;0.52;;;25.50;99.90;;;;;;5017947;28;20265;-78
2023/08/31 11:46:39;;;;;;;0.60;0.60;;;25.90;99.90;;;;;;5017900;28;20327;-77
2023/08/31 11:49:07;;;;;;;1.05;0.80;;;26.00;99.90;;;;;;5020390;28;20270;-75
2023/08/31 11:51:36;;;;;;;0.60;0.60;;;25.90;99.90;;;;;;5017704;28;20227;-77
2023/08/31 11:54:06;;;;;;;0.88;0.80;;;26.00;99.90;;;;;;5023850;28;20204;-75
2023/08/31 11:56:40;;;;;;;0.80;0.80;;;26.10;99.90;;;;;;5025671;28;20203;-75
2023/08/31 11:59:10;;;;;;;0.70;0.70;;;26.20;99.90;;;;;;5021026;28;20215;-76
2023/08/31 12:01:40;;;;;;;0.75;0.75;;;26.40;99.90;;;;;;5019693;28;20276;-76
2023/08/31 12:04:14;;;;;;;0.68;0.68;;;26.60;99.90;;;;;;5023698;28;20194;-76
2023/08/31 12:06:46;;;;;;;0.75;0.75;;;27.00;99.90;;;;;;5023040;28;20814;-75
2023/08/31 12:09:13;;;;;;;1.05;0.82;;;27.10;99.90;;;;;;5021698;28;20227;-77
2023/08/31 12:11:40;;;;;;;0.80;0.80;;;27.30;99.90;;;;;;5019621;28;20223;-76
2023/08/31 12:14:20;;;;;;;0.50;0.50;;;27.20;99.90;;;;;;5019559;28;20290;-75
2023/08/31 12:16:47;;;;;;;1.00;0.57;;;26.90;99.90;;;;;;5021157;28;20953;-76
2023/08/31 12:19:14;;;;;;;1.73;0.80;;;26.80;99.90;;;;;;5021976;28;20737;-77
2023/08/31 12:21:44;;;;;;;0.80;0.80;;;26.60;99.90;;;;;;5026135;28;20242;-76
2023/08/31 12:24:11;;;;;;;0.70;0.70;;;26.20;99.90;;;;;;5022359;28;20286;-76
2023/08/31 12:26:38;;;;;;;0.68;0.68;;;26.10;99.90;;;;;;5023910;28;20257;-76
2023/08/31 12:29:06;;;;;;;0.70;0.70;;;26.10;99.90;;;;;;5027304;28;20250;-77
2023/08/31 12:31:33;;;;;;;1.10;0.80;;;26.10;99.90;;;;;;5025516;28;20270;-75
2023/08/31 12:34:04;;;;;;;1.00;0.60;;;26.10;99.90;;;;;;5024498;28;20246;-76
2023/08/31 12:36:31;;;;;;;0.70;0.68;;;26.10;99.90;;;;;;5021135;28;20254;-76
2023/08/31 12:39:01;;;;;;;0.85;0.85;;;26.00;99.90;;;;;;5022765;28;20353;-75
2023/08/31 12:41:28;;;;;;;1.05;0.93;;;25.90;99.90;;;;;;5025422;28;20207;-76
2023/08/31 12:43:55;;;;;;;0.85;0.85;;;26.00;99.90;;;;;;5024325;28;20286;-77
2023/08/31 12:46:22;;;;;;;1.23;0.80;;;25.90;99.90;;;;;;5020591;28;20963;-76
2023/08/31 12:48:49;;;;;;;0.85;0.77;;;25.70;99.90;;;;;;5026216;28;20227;-76
2023/08/31 12:51:16;;;;;;;1.02;1.00;;;25.40;99.90;;;;;;5027812;28;20693;-75
2023/08/31 12:53:43;;;;;;;0.80;0.80;;;25.10;99.90;;;;;;5026392;28;20286;-75